Plainview, TX (79072)

5:43 PM CDT on August 24, 2016 (GMT -0500)
Oasis - 79072 | | Change Station

Elev 3386 ft 34.19 °N, 101.77 °W | Updated 1 minute ago

Clear
Clear
76.6 °F
Feels Like 78 °F
N
16.6
Wind Variable Wind from East

Today
High -- | Low -- °F
--% Chance of Precip.
Yesterday
High -- | Low -- °F
Precip. -- in
Pressure 30.08 in
Visibility 10.0 miles
Clouds Clear
Heat Index 78 °F
Dew Point 61 °F
Humidity 59%
Rainfall 0.04 in
Snow Depth Not available.
7:15 AM 8:22 PM
Waning Gibbous, 52% visible
METAR KPVW 242235Z AUTO 21012G16KT 10SM CLR 24/16 A3008 RMK AO2 T02430159
Pressure 30.08 in
Visibility 10.0 miles
Clouds Clear
Heat Index 78 °F
Dew Point 61 °F
Humidity 59%
Rainfall 0.04 in
Snow Depth Not available.
7:15 AM 8:22 PM
Waning Gibbous, 52% visible
METAR KPVW 242235Z AUTO 21012G16KT 10SM CLR 24/16 A3008 RMK AO2 T02430159

10-Day Weather Forecast

Almanac

Astronomy

Aug. 24, 2016 Rise Set
Actual Time
Civil Twilight
Nautical Twilight
Astronomical Twilight
Moon
Length of Visible Light
Length of Day
Tomorrow will be .
, % of the Moon is Illuminated

Today's Extremes

State Highs State Lows

Community

WunderPhotos

Upload Photos

1,934,728 photos uploaded!

WunderBlog® & News

Nearby

Air Quality

  Air Quality AQ Index Pollutant
Not available.

Snow Depth

Station Depth Elevation

Earthquake Activity

City Distance Mag. Time & Date
Minimum magnitude displayed is 2.5.

Coastal Water Temperatures

Place Temperature

Stations

Nearby Weather Stations

Station Location Temp. Windchill Dew Point Humidity Wind Precip. Elev Updated Type
                   

Watches & Warnings

There are currently no watches in effect.